sensor_id;sensor_type;location;lat;lon;timestamp;P1;durP1;ratioP1;P2;durP2;ratioP2
64851;SDS011;56050;55.558;-4.644;2023-08-17T00:00:04;3.63;;;1.45;;
64851;SDS011;56050;55.558;-4.644;2023-08-17T00:02:33;3.30;;;1.02;;
64851;SDS011;56050;55.558;-4.644;2023-08-17T00:04:58;3.58;;;1.48;;
64851;SDS011;56050;55.558;-4.644;2023-08-17T00:07:24;4.07;;;1.08;;
64851;SDS011;56050;55.558;-4.644;2023-08-17T00:09:49;3.80;;;2.00;;
64851;SDS011;56050;55.558;-4.644;2023-08-17T00:12:15;4.57;;;1.17;;
64851;SDS011;56050;55.558;-4.644;2023-08-17T00:14:40;3.08;;;1.30;;
64851;SDS011;56050;55.558;-4.644;2023-08-17T00:17:06;4.88;;;1.30;;
64851;SDS011;56050;55.558;-4.644;2023-08-17T00:19:31;4.82;;;1.75;;
64851;SDS011;56050;55.558;-4.644;2023-08-17T00:21:56;3.90;;;1.45;;
64851;SDS011;56050;55.558;-4.644;2023-08-17T00:24:22;3.63;;;1.13;;
64851;SDS011;56050;55.558;-4.644;2023-08-17T00:26:47;2.25;;;1.25;;
64851;SDS011;56050;55.558;-4.644;2023-08-17T00:29:13;3.65;;;1.70;;
64851;SDS011;56050;55.558;-4.644;2023-08-17T00:31:40;4.50;;;1.15;;
64851;SDS011;56050;55.558;-4.644;2023-08-17T00:34:06;3.30;;;0.98;;
64851;SDS011;56050;55.558;-4.644;2023-08-17T00:36:31;4.65;;;1.50;;
64851;SDS011;56050;55.558;-4.644;2023-08-17T00:38:56;4.63;;;1.45;;
64851;SDS011;56050;55.558;-4.644;2023-08-17T00:41:22;3.33;;;0.98;;
64851;SDS011;56050;55.558;-4.644;2023-08-17T00:43:47;3.38;;;2.35;;
64851;SDS011;56050;55.558;-4.644;2023-08-17T00:46:13;2.63;;;1.35;;
64851;SDS011;56050;55.558;-4.644;2023-08-17T00:48:39;2.75;;;1.23;;
64851;SDS011;56050;55.558;-4.644;2023-08-17T00:51:05;2.63;;;1.30;;
64851;SDS011;56050;55.558;-4.644;2023-08-17T00:53:31;3.20;;;1.23;;
64851;SDS011;56050;55.558;-4.644;2023-08-17T00:55:57;3.58;;;1.35;;
64851;SDS011;56050;55.558;-4.644;2023-08-17T00:58:24;2.80;;;1.15;;
64851;SDS011;56050;55.558;-4.644;2023-08-17T01:00:50;3.92;;;1.23;;
64851;SDS011;56050;55.558;-4.644;2023-08-17T01:03:16;3.75;;;1.48;;
64851;SDS011;56050;55.558;-4.644;2023-08-17T01:05:42;4.00;;;1.25;;
64851;SDS011;56050;55.558;-4.644;2023-08-17T01:08:08;2.83;;;0.98;;
64851;SDS011;56050;55.558;-4.644;2023-08-17T01:10:39;4.32;;;0.90;;
64851;SDS011;56050;55.558;-4.644;2023-08-17T01:13:18;3.85;;;1.13;;
64851;SDS011;56050;55.558;-4.644;2023-08-17T01:16:09;4.43;;;1.17;;
64851;SDS011;56050;55.558;-4.644;2023-08-17T01:18:39;4.70;;;1.42;;
64851;SDS011;56050;55.558;-4.644;2023-08-17T01:21:06;3.20;;;1.15;;
64851;SDS011;56050;55.558;-4.644;2023-08-17T01:23:35;3.38;;;1.20;;
64851;SDS011;56050;55.558;-4.644;2023-08-17T01:26:00;1.90;;;0.85;;
64851;SDS011;56050;55.558;-4.644;2023-08-17T01:28:26;3.42;;;1.02;;
64851;SDS011;56050;55.558;-4.644;2023-08-17T01:33:20;3.30;;;1.47;;
64851;SDS011;56050;55.558;-4.644;2023-08-17T01:38:53;2.83;;;1.08;;
64851;SDS011;56050;55.558;-4.644;2023-08-17T01:41:21;3.35;;;0.98;;
64851;SDS011;56050;55.558;-4.644;2023-08-17T01:43:48;3.83;;;1.20;;
64851;SDS011;56050;55.558;-4.644;2023-08-17T01:46:15;3.67;;;1.35;;
64851;SDS011;56050;55.558;-4.644;2023-08-17T01:48:41;2.83;;;1.10;;
64851;SDS011;56050;55.558;-4.644;2023-08-17T01:51:07;2.75;;;1.17;;
64851;SDS011;56050;55.558;-4.644;2023-08-17T01:53:33;2.40;;;0.95;;
64851;SDS011;56050;55.558;-4.644;2023-08-17T01:55:58;2.78;;;1.48;;
64851;SDS011;56050;55.558;-4.644;2023-08-17T01:58:24;4.03;;;0.75;;
64851;SDS011;56050;55.558;-4.644;2023-08-17T02:00:49;2.40;;;1.15;;
64851;SDS011;56050;55.558;-4.644;2023-08-17T02:03:15;2.88;;;0.80;;
64851;SDS011;56050;55.558;-4.644;2023-08-17T02:05:46;2.85;;;0.80;;
64851;SDS011;56050;55.558;-4.644;2023-08-17T02:08:12;2.70;;;0.93;;
64851;SDS011;56050;55.558;-4.644;2023-08-17T02:10:37;2.92;;;1.23;;
64851;SDS011;56050;55.558;-4.644;2023-08-17T02:13:03;3.00;;;0.63;;
64851;SDS011;56050;55.558;-4.644;2023-08-17T02:15:29;4.07;;;1.33;;
64851;SDS011;56050;55.558;-4.644;2023-08-17T02:17:54;4.32;;;1.00;;
64851;SDS011;56050;55.558;-4.644;2023-08-17T02:20:22;4.28;;;1.13;;
64851;SDS011;56050;55.558;-4.644;2023-08-17T02:22:47;3.33;;;1.73;;
64851;SDS011;56050;55.558;-4.644;2023-08-17T02:25:12;4.07;;;0.93;;
64851;SDS011;56050;55.558;-4.644;2023-08-17T02:27:38;3.45;;;3.08;;
64851;SDS011;56050;55.558;-4.644;2023-08-17T02:30:03;4.13;;;1.23;;
64851;SDS011;56050;55.558;-4.644;2023-08-17T02:32:29;3.40;;;1.20;;
64851;SDS011;56050;55.558;-4.644;2023-08-17T02:34:54;3.15;;;1.17;;
64851;SDS011;56050;55.558;-4.644;2023-08-17T02:37:20;2.97;;;1.27;;
64851;SDS011;56050;55.558;-4.644;2023-08-17T02:39:45;3.05;;;0.88;;
64851;SDS011;56050;55.558;-4.644;2023-08-17T02:42:11;4.50;;;2.67;;
64851;SDS011;56050;55.558;-4.644;2023-08-17T02:44:36;3.47;;;0.90;;
64851;SDS011;56050;55.558;-4.644;2023-08-17T02:47:01;7.65;;;1.40;;
64851;SDS011;56050;55.558;-4.644;2023-08-17T02:49:27;4.35;;;0.80;;
64851;SDS011;56050;55.558;-4.644;2023-08-17T02:51:52;2.20;;;0.60;;
64851;SDS011;56050;55.558;-4.644;2023-08-17T02:54:18;4.25;;;1.02;;
64851;SDS011;56050;55.558;-4.644;2023-08-17T02:56:43;3.22;;;0.82;;
64851;SDS011;56050;55.558;-4.644;2023-08-17T02:59:08;2.88;;;1.15;;
64851;SDS011;56050;55.558;-4.644;2023-08-17T03:01:34;3.42;;;1.20;;
64851;SDS011;56050;55.558;-4.644;2023-08-17T03:04:00;3.95;;;1.27;;
64851;SDS011;56050;55.558;-4.644;2023-08-17T03:06:25;3.05;;;1.00;;
64851;SDS011;56050;55.558;-4.644;2023-08-17T03:08:51;3.10;;;1.40;;
64851;SDS011;56050;55.558;-4.644;2023-08-17T03:11:17;2.60;;;0.90;;
64851;SDS011;56050;55.558;-4.644;2023-08-17T03:13:43;3.10;;;0.90;;
64851;SDS011;56050;55.558;-4.644;2023-08-17T03:16:08;3.38;;;0.93;;
64851;SDS011;56050;55.558;-4.644;2023-08-17T03:18:33;3.85;;;1.00;;
64851;SDS011;56050;55.558;-4.644;2023-08-17T03:20:59;3.10;;;2.28;;
64851;SDS011;56050;55.558;-4.644;2023-08-17T03:23:24;3.75;;;0.93;;
64851;SDS011;56050;55.558;-4.644;2023-08-17T03:25:53;3.10;;;2.25;;
64851;SDS011;56050;55.558;-4.644;2023-08-17T03:28:19;3.45;;;1.15;;
64851;SDS011;56050;55.558;-4.644;2023-08-17T03:30:44;4.78;;;1.88;;
64851;SDS011;56050;55.558;-4.644;2023-08-17T03:33:10;3.88;;;1.13;;
64851;SDS011;56050;55.558;-4.644;2023-08-17T03:35:35;5.82;;;1.42;;
64851;SDS011;56050;55.558;-4.644;2023-08-17T03:38:01;4.60;;;1.90;;
64851;SDS011;56050;55.558;-4.644;2023-08-17T03:40:26;4.88;;;1.63;;
64851;SDS011;56050;55.558;-4.644;2023-08-17T03:42:51;4.03;;;1.95;;
64851;SDS011;56050;55.558;-4.644;2023-08-17T03:45:17;4.85;;;1.70;;
64851;SDS011;56050;55.558;-4.644;2023-08-17T03:47:43;4.78;;;2.17;;
64851;SDS011;56050;55.558;-4.644;2023-08-17T03:50:09;6.20;;;2.28;;
64851;SDS011;56050;55.558;-4.644;2023-08-17T03:52:35;4.95;;;1.98;;
64851;SDS011;56050;55.558;-4.644;2023-08-17T03:55:00;5.85;;;2.08;;
64851;SDS011;56050;55.558;-4.644;2023-08-17T03:57:26;4.60;;;1.55;;
64851;SDS011;56050;55.558;-4.644;2023-08-17T03:59:51;4.47;;;2.05;;
64851;SDS011;56050;55.558;-4.644;2023-08-17T04:02:16;6.60;;;2.13;;
64851;SDS011;56050;55.558;-4.644;2023-08-17T04:04:42;4.38;;;2.10;;
64851;SDS011;56050;55.558;-4.644;2023-08-17T04:07:07;4.10;;;1.27;;
64851;SDS011;56050;55.558;-4.644;2023-08-17T04:09:33;4.07;;;1.67;;
64851;SDS011;56050;55.558;-4.644;2023-08-17T04:11:59;4.90;;;1.38;;
64851;SDS011;56050;55.558;-4.644;2023-08-17T04:14:24;5.68;;;3.17;;
64851;SDS011;56050;55.558;-4.644;2023-08-17T04:16:50;5.50;;;1.85;;
64851;SDS011;56050;55.558;-4.644;2023-08-17T04:19:16;6.72;;;1.70;;
64851;SDS011;56050;55.558;-4.644;2023-08-17T04:21:41;4.00;;;1.60;;
64851;SDS011;56050;55.558;-4.644;2023-08-17T04:24:07;3.97;;;1.48;;
64851;SDS011;56050;55.558;-4.644;2023-08-17T04:26:32;4.43;;;1.38;;
64851;SDS011;56050;55.558;-4.644;2023-08-17T04:28:57;4.30;;;1.70;;
64851;SDS011;56050;55.558;-4.644;2023-08-17T04:31:23;4.22;;;1.08;;
64851;SDS011;56050;55.558;-4.644;2023-08-17T04:33:48;5.28;;;2.63;;
64851;SDS011;56050;55.558;-4.644;2023-08-17T04:36:14;4.47;;;1.08;;
64851;SDS011;56050;55.558;-4.644;2023-08-17T04:38:39;7.10;;;3.40;;
64851;SDS011;56050;55.558;-4.644;2023-08-17T04:41:05;3.97;;;1.15;;
64851;SDS011;56050;55.558;-4.644;2023-08-17T04:43:30;3.85;;;1.67;;
64851;SDS011;56050;55.558;-4.644;2023-08-17T04:45:55;4.07;;;1.38;;
64851;SDS011;56050;55.558;-4.644;2023-08-17T04:48:21;3.67;;;1.55;;
64851;SDS011;56050;55.558;-4.644;2023-08-17T04:50:46;5.25;;;1.25;;
64851;SDS011;56050;55.558;-4.644;2023-08-17T04:53:12;4.22;;;1.70;;
64851;SDS011;56050;55.558;-4.644;2023-08-17T04:55:37;3.42;;;1.67;;
64851;SDS011;56050;55.558;-4.644;2023-08-17T04:58:03;4.05;;;1.35;;
64851;SDS011;56050;55.558;-4.644;2023-08-17T05:00:28;4.30;;;2.05;;
64851;SDS011;56050;55.558;-4.644;2023-08-17T05:02:54;5.40;;;2.63;;
64851;SDS011;56050;55.558;-4.644;2023-08-17T05:05:20;4.70;;;1.52;;
64851;SDS011;56050;55.558;-4.644;2023-08-17T05:07:46;5.00;;;1.77;;
64851;SDS011;56050;55.558;-4.644;2023-08-17T05:10:11;5.82;;;1.40;;
64851;SDS011;56050;55.558;-4.644;2023-08-17T05:12:37;5.38;;;1.58;;
64851;SDS011;56050;55.558;-4.644;2023-08-17T05:15:02;6.57;;;3.58;;
64851;SDS011;56050;55.558;-4.644;2023-08-17T05:17:28;5.78;;;2.33;;
64851;SDS011;56050;55.558;-4.644;2023-08-17T05:19:53;4.28;;;1.63;;
64851;SDS011;56050;55.558;-4.644;2023-08-17T05:22:19;4.95;;;2.58;;
64851;SDS011;56050;55.558;-4.644;2023-08-17T05:24:44;7.03;;;2.03;;
64851;SDS011;56050;55.558;-4.644;2023-08-17T05:27:10;8.48;;;1.83;;
64851;SDS011;56050;55.558;-4.644;2023-08-17T05:29:35;5.53;;;1.65;;
64851;SDS011;56050;55.558;-4.644;2023-08-17T05:32:00;6.50;;;1.88;;
64851;SDS011;56050;55.558;-4.644;2023-08-17T05:34:26;5.25;;;1.95;;
64851;SDS011;56050;55.558;-4.644;2023-08-17T05:36:51;5.30;;;1.90;;
64851;SDS011;56050;55.558;-4.644;2023-08-17T05:39:17;4.32;;;1.50;;
64851;SDS011;56050;55.558;-4.644;2023-08-17T05:41:43;5.85;;;2.25;;
64851;SDS011;56050;55.558;-4.644;2023-08-17T05:44:08;3.70;;;1.30;;
64851;SDS011;56050;55.558;-4.644;2023-08-17T05:46:34;6.97;;;2.30;;
64851;SDS011;56050;55.558;-4.644;2023-08-17T05:49:01;3.85;;;1.30;;
64851;SDS011;56050;55.558;-4.644;2023-08-17T05:51:26;5.78;;;1.50;;
64851;SDS011;56050;55.558;-4.644;2023-08-17T05:53:52;5.05;;;1.48;;
64851;SDS011;56050;55.558;-4.644;2023-08-17T05:56:17;5.50;;;1.85;;
64851;SDS011;56050;55.558;-4.644;2023-08-17T05:58:43;4.38;;;1.55;;
64851;SDS011;56050;55.558;-4.644;2023-08-17T06:01:10;7.28;;;2.08;;
64851;SDS011;56050;55.558;-4.644;2023-08-17T06:03:36;8.75;;;2.30;;
64851;SDS011;56050;55.558;-4.644;2023-08-17T06:06:02;12.23;;;1.92;;
64851;SDS011;56050;55.558;-4.644;2023-08-17T06:08:28;13.98;;;3.67;;
64851;SDS011;56050;55.558;-4.644;2023-08-17T06:10:54;9.10;;;2.22;;
64851;SDS011;56050;55.558;-4.644;2023-08-17T06:13:20;7.55;;;1.88;;
64851;SDS011;56050;55.558;-4.644;2023-08-17T06:15:46;6.57;;;1.92;;
64851;SDS011;56050;55.558;-4.644;2023-08-17T06:18:11;8.68;;;1.75;;
64851;SDS011;56050;55.558;-4.644;2023-08-17T06:20:36;7.40;;;2.28;;
64851;SDS011;56050;55.558;-4.644;2023-08-17T06:23:02;7.82;;;2.15;;
64851;SDS011;56050;55.558;-4.644;2023-08-17T06:25:28;9.68;;;2.22;;
64851;SDS011;56050;55.558;-4.644;2023-08-17T06:27:53;7.32;;;2.10;;
64851;SDS011;56050;55.558;-4.644;2023-08-17T06:30:18;11.98;;;2.20;;
64851;SDS011;56050;55.558;-4.644;2023-08-17T06:32:44;5.95;;;1.83;;
64851;SDS011;56050;55.558;-4.644;2023-08-17T06:35:09;8.45;;;1.77;;
64851;SDS011;56050;55.558;-4.644;2023-08-17T06:37:35;8.52;;;2.25;;
64851;SDS011;56050;55.558;-4.644;2023-08-17T06:40:02;8.18;;;2.63;;
64851;SDS011;56050;55.558;-4.644;2023-08-17T06:42:28;10.77;;;3.00;;
64851;SDS011;56050;55.558;-4.644;2023-08-17T06:44:53;5.03;;;2.10;;
64851;SDS011;56050;55.558;-4.644;2023-08-17T06:47:19;6.53;;;1.90;;
64851;SDS011;56050;55.558;-4.644;2023-08-17T06:49:44;6.90;;;1.85;;
64851;SDS011;56050;55.558;-4.644;2023-08-17T06:52:10;7.15;;;1.67;;
64851;SDS011;56050;55.558;-4.644;2023-08-17T06:54:35;7.43;;;1.67;;
64851;SDS011;56050;55.558;-4.644;2023-08-17T06:57:01;5.30;;;2.78;;
64851;SDS011;56050;55.558;-4.644;2023-08-17T06:59:26;6.70;;;2.50;;
64851;SDS011;56050;55.558;-4.644;2023-08-17T07:01:52;5.63;;;2.15;;
64851;SDS011;56050;55.558;-4.644;2023-08-17T07:04:17;4.93;;;2.35;;
64851;SDS011;56050;55.558;-4.644;2023-08-17T07:06:43;6.32;;;2.38;;
64851;SDS011;56050;55.558;-4.644;2023-08-17T07:09:08;5.30;;;2.13;;
64851;SDS011;56050;55.558;-4.644;2023-08-17T07:11:37;5.13;;;2.45;;
64851;SDS011;56050;55.558;-4.644;2023-08-17T07:14:03;4.45;;;2.22;;
64851;SDS011;56050;55.558;-4.644;2023-08-17T07:16:31;7.43;;;2.60;;
64851;SDS011;56050;55.558;-4.644;2023-08-17T07:18:56;7.47;;;2.30;;
64851;SDS011;56050;55.558;-4.644;2023-08-17T07:21:22;7.90;;;2.53;;
64851;SDS011;56050;55.558;-4.644;2023-08-17T07:23:47;6.18;;;1.95;;
64851;SDS011;56050;55.558;-4.644;2023-08-17T07:26:14;4.45;;;2.13;;
64851;SDS011;56050;55.558;-4.644;2023-08-17T07:28:39;6.65;;;2.17;;
64851;SDS011;56050;55.558;-4.644;2023-08-17T07:31:05;4.80;;;2.15;;
64851;SDS011;56050;55.558;-4.644;2023-08-17T07:33:31;6.57;;;2.63;;
64851;SDS011;56050;55.558;-4.644;2023-08-17T07:35:56;6.20;;;2.63;;
64851;SDS011;56050;55.558;-4.644;2023-08-17T07:38:23;4.82;;;1.95;;
64851;SDS011;56050;55.558;-4.644;2023-08-17T07:40:48;4.80;;;2.85;;
64851;SDS011;56050;55.558;-4.644;2023-08-17T07:43:14;5.10;;;2.08;;
64851;SDS011;56050;55.558;-4.644;2023-08-17T07:45:39;5.90;;;1.58;;
64851;SDS011;56050;55.558;-4.644;2023-08-17T07:48:05;4.22;;;2.42;;
64851;SDS011;56050;55.558;-4.644;2023-08-17T07:50:30;6.05;;;1.48;;
64851;SDS011;56050;55.558;-4.644;2023-08-17T07:52:55;4.30;;;2.05;;
64851;SDS011;56050;55.558;-4.644;2023-08-17T07:55:21;4.15;;;1.27;;
64851;SDS011;56050;55.558;-4.644;2023-08-17T07:57:46;6.63;;;2.10;;
64851;SDS011;56050;55.558;-4.644;2023-08-17T08:00:12;4.90;;;2.92;;
64851;SDS011;56050;55.558;-4.644;2023-08-17T08:02:37;6.38;;;2.15;;
64851;SDS011;56050;55.558;-4.644;2023-08-17T08:05:03;4.38;;;1.90;;
64851;SDS011;56050;55.558;-4.644;2023-08-17T08:07:29;4.78;;;2.08;;
64851;SDS011;56050;55.558;-4.644;2023-08-17T08:09:54;5.57;;;2.60;;
64851;SDS011;56050;55.558;-4.644;2023-08-17T08:12:20;6.25;;;2.40;;
64851;SDS011;56050;55.558;-4.644;2023-08-17T08:14:45;5.32;;;2.40;;
64851;SDS011;56050;55.558;-4.644;2023-08-17T08:17:10;4.15;;;2.05;;
64851;SDS011;56050;55.558;-4.644;2023-08-17T08:19:36;6.78;;;2.45;;
64851;SDS011;56050;55.558;-4.644;2023-08-17T08:22:01;7.25;;;2.80;;
64851;SDS011;56050;55.558;-4.644;2023-08-17T08:24:27;7.57;;;2.03;;
64851;SDS011;56050;55.558;-4.644;2023-08-17T08:26:58;7.10;;;2.88;;
64851;SDS011;56050;55.558;-4.644;2023-08-17T08:29:24;7.45;;;3.15;;
64851;SDS011;56050;55.558;-4.644;2023-08-17T08:31:49;8.15;;;4.07;;
64851;SDS011;56050;55.558;-4.644;2023-08-17T08:34:15;5.88;;;3.25;;
64851;SDS011;56050;55.558;-4.644;2023-08-17T08:36:40;7.35;;;3.55;;
64851;SDS011;56050;55.558;-4.644;2023-08-17T08:39:05;6.80;;;2.83;;
64851;SDS011;56050;55.558;-4.644;2023-08-17T08:41:31;7.25;;;3.25;;
64851;SDS011;56050;55.558;-4.644;2023-08-17T08:43:57;6.57;;;2.85;;
64851;SDS011;56050;55.558;-4.644;2023-08-17T08:46:23;4.28;;;1.77;;
64851;SDS011;56050;55.558;-4.644;2023-08-17T08:48:55;5.85;;;2.28;;
64851;SDS011;56050;55.558;-4.644;2023-08-17T08:51:23;4.75;;;2.15;;
64851;SDS011;56050;55.558;-4.644;2023-08-17T08:53:57;5.35;;;2.20;;
64851;SDS011;56050;55.558;-4.644;2023-08-17T08:56:32;6.82;;;2.88;;
64851;SDS011;56050;55.558;-4.644;2023-08-17T08:59:03;5.53;;;3.10;;
64851;SDS011;56050;55.558;-4.644;2023-08-17T09:01:32;6.30;;;2.40;;
64851;SDS011;56050;55.558;-4.644;2023-08-17T09:03:58;6.43;;;2.90;;
64851;SDS011;56050;55.558;-4.644;2023-08-17T09:06:31;6.97;;;2.22;;
64851;SDS011;56050;55.558;-4.644;2023-08-17T09:08:57;5.82;;;2.67;;
64851;SDS011;56050;55.558;-4.644;2023-08-17T09:11:24;6.35;;;3.03;;
64851;SDS011;56050;55.558;-4.644;2023-08-17T09:13:50;6.85;;;2.67;;
64851;SDS011;56050;55.558;-4.644;2023-08-17T09:16:15;5.72;;;2.28;;
64851;SDS011;56050;55.558;-4.644;2023-08-17T09:18:40;4.25;;;2.38;;
64851;SDS011;56050;55.558;-4.644;2023-08-17T09:21:06;4.95;;;2.50;;
64851;SDS011;56050;55.558;-4.644;2023-08-17T09:23:32;5.82;;;2.35;;
64851;SDS011;56050;55.558;-4.644;2023-08-17T09:25:57;4.97;;;2.50;;
64851;SDS011;56050;55.558;-4.644;2023-08-17T09:28:33;5.50;;;2.30;;
64851;SDS011;56050;55.558;-4.644;2023-08-17T09:33:30;6.22;;;2.42;;
64851;SDS011;56050;55.558;-4.644;2023-08-17T09:35:57;6.07;;;2.20;;
64851;SDS011;56050;55.558;-4.644;2023-08-17T09:38:23;6.97;;;2.83;;
64851;SDS011;56050;55.558;-4.644;2023-08-17T09:40:49;5.47;;;3.15;;
64851;SDS011;56050;55.558;-4.644;2023-08-17T09:43:16;4.70;;;2.50;;
64851;SDS011;56050;55.558;-4.644;2023-08-17T09:45:45;4.53;;;3.10;;
64851;SDS011;56050;55.558;-4.644;2023-08-17T09:48:17;5.47;;;2.60;;
64851;SDS011;56050;55.558;-4.644;2023-08-17T09:50:44;6.38;;;2.25;;
64851;SDS011;56050;55.558;-4.644;2023-08-17T09:53:15;4.40;;;2.25;;
64851;SDS011;56050;55.558;-4.644;2023-08-17T09:55:42;5.80;;;1.88;;
64851;SDS011;56050;55.558;-4.644;2023-08-17T09:58:09;5.40;;;1.95;;
64851;SDS011;56050;55.558;-4.644;2023-08-17T10:00:39;3.50;;;1.90;;
64851;SDS011;56050;55.558;-4.644;2023-08-17T10:03:08;5.28;;;2.03;;
64851;SDS011;56050;55.558;-4.644;2023-08-17T10:05:35;3.95;;;2.10;;
64851;SDS011;56050;55.558;-4.644;2023-08-17T10:08:05;5.97;;;2.03;;
64851;SDS011;56050;55.558;-4.644;2023-08-17T10:10:33;4.22;;;1.75;;
64851;SDS011;56050;55.558;-4.644;2023-08-17T10:13:09;4.50;;;2.22;;
64851;SDS011;56050;55.558;-4.644;2023-08-17T10:16:22;3.38;;;1.77;;
64851;SDS011;56050;55.558;-4.644;2023-08-17T10:24:25;5.35;;;2.28;;
64851;SDS011;56050;55.558;-4.644;2023-08-17T10:26:51;5.28;;;2.22;;
64851;SDS011;56050;55.558;-4.644;2023-08-17T10:29:17;4.65;;;2.38;;
64851;SDS011;56050;55.558;-4.644;2023-08-17T10:31:45;3.03;;;1.55;;
64851;SDS011;56050;55.558;-4.644;2023-08-17T10:34:11;3.85;;;1.67;;
64851;SDS011;56050;55.558;-4.644;2023-08-17T10:36:37;6.03;;;1.90;;
64851;SDS011;56050;55.558;-4.644;2023-08-17T10:39:23;5.22;;;1.55;;
64851;SDS011;56050;55.558;-4.644;2023-08-17T10:41:50;4.47;;;1.55;;
64851;SDS011;56050;55.558;-4.644;2023-08-17T10:49:48;4.90;;;2.80;;
64851;SDS011;56050;55.558;-4.644;2023-08-17T10:55:01;3.10;;;1.60;;
64851;SDS011;56050;55.558;-4.644;2023-08-17T11:03:00;4.30;;;1.55;;
64851;SDS011;56050;55.558;-4.644;2023-08-17T11:08:00;7.93;;;2.08;;
64851;SDS011;56050;55.558;-4.644;2023-08-17T11:12:52;4.50;;;1.70;;
64851;SDS011;56050;55.558;-4.644;2023-08-17T11:15:21;5.35;;;1.77;;
64851;SDS011;56050;55.558;-4.644;2023-08-17T11:17:48;3.72;;;1.42;;
64851;SDS011;56050;55.558;-4.644;2023-08-17T11:20:13;6.53;;;1.75;;
64851;SDS011;56050;55.558;-4.644;2023-08-17T11:22:39;4.30;;;2.53;;
64851;SDS011;56050;55.558;-4.644;2023-08-17T11:25:04;4.35;;;1.25;;
64851;SDS011;56050;55.558;-4.644;2023-08-17T11:27:30;3.28;;;1.40;;
64851;SDS011;56050;55.558;-4.644;2023-08-17T11:29:56;4.78;;;1.48;;
64851;SDS011;56050;55.558;-4.644;2023-08-17T11:32:21;5.95;;;1.75;;
64851;SDS011;56050;55.558;-4.644;2023-08-17T11:34:47;4.78;;;1.33;;
64851;SDS011;56050;55.558;-4.644;2023-08-17T11:37:12;3.35;;;1.45;;
64851;SDS011;56050;55.558;-4.644;2023-08-17T11:39:38;3.60;;;1.73;;
64851;SDS011;56050;55.558;-4.644;2023-08-17T11:42:03;4.65;;;2.30;;
64851;SDS011;56050;55.558;-4.644;2023-08-17T11:44:29;4.13;;;1.45;;
64851;SDS011;56050;55.558;-4.644;2023-08-17T11:46:55;3.30;;;1.38;;
64851;SDS011;56050;55.558;-4.644;2023-08-17T11:49:20;4.78;;;2.15;;
64851;SDS011;56050;55.558;-4.644;2023-08-17T11:51:49;4.68;;;1.92;;
64851;SDS011;56050;55.558;-4.644;2023-08-17T11:54:14;6.90;;;2.30;;
64851;SDS011;56050;55.558;-4.644;2023-08-17T11:56:40;5.75;;;2.17;;
64851;SDS011;56050;55.558;-4.644;2023-08-17T11:59:09;6.00;;;1.52;;
64851;SDS011;56050;55.558;-4.644;2023-08-17T12:01:39;5.97;;;2.45;;
64851;SDS011;56050;55.558;-4.644;2023-08-17T12:04:05;3.55;;;1.80;;
64851;SDS011;56050;55.558;-4.644;2023-08-17T12:06:31;4.85;;;1.88;;
64851;SDS011;56050;55.558;-4.644;2023-08-17T12:08:57;3.20;;;1.52;;
64851;SDS011;56050;55.558;-4.644;2023-08-17T12:11:25;4.35;;;3.58;;
64851;SDS011;56050;55.558;-4.644;2023-08-17T12:13:51;3.65;;;1.65;;
64851;SDS011;56050;55.558;-4.644;2023-08-17T12:16:17;3.67;;;2.00;;
64851;SDS011;56050;55.558;-4.644;2023-08-17T12:18:45;4.00;;;2.45;;
64851;SDS011;56050;55.558;-4.644;2023-08-17T12:21:13;3.22;;;1.77;;
64851;SDS011;56050;55.558;-4.644;2023-08-17T12:23:38;4.78;;;2.45;;
64851;SDS011;56050;55.558;-4.644;2023-08-17T12:26:04;5.63;;;1.63;;
64851;SDS011;56050;55.558;-4.644;2023-08-17T12:28:29;4.15;;;1.50;;
64851;SDS011;56050;55.558;-4.644;2023-08-17T12:31:01;4.28;;;1.45;;
64851;SDS011;56050;55.558;-4.644;2023-08-17T12:33:29;5.60;;;1.35;;
64851;SDS011;56050;55.558;-4.644;2023-08-17T12:35:55;3.22;;;1.52;;
64851;SDS011;56050;55.558;-4.644;2023-08-17T12:38:21;5.85;;;1.60;;
64851;SDS011;56050;55.558;-4.644;2023-08-17T12:40:48;3.33;;;1.55;;
64851;SDS011;56050;55.558;-4.644;2023-08-17T12:43:13;4.47;;;1.77;;
64851;SDS011;56050;55.558;-4.644;2023-08-17T12:45:39;3.55;;;1.38;;
64851;SDS011;56050;55.558;-4.644;2023-08-17T12:48:04;3.30;;;2.30;;
64851;SDS011;56050;55.558;-4.644;2023-08-17T12:50:30;4.35;;;1.30;;
64851;SDS011;56050;55.558;-4.644;2023-08-17T12:52:55;5.20;;;1.42;;
64851;SDS011;56050;55.558;-4.644;2023-08-17T12:55:21;2.40;;;1.33;;
64851;SDS011;56050;55.558;-4.644;2023-08-17T12:57:46;3.15;;;1.13;;
64851;SDS011;56050;55.558;-4.644;2023-08-17T13:00:12;3.75;;;2.67;;
64851;SDS011;56050;55.558;-4.644;2023-08-17T13:02:37;3.65;;;1.40;;
64851;SDS011;56050;55.558;-4.644;2023-08-17T13:05:03;3.65;;;1.95;;
64851;SDS011;56050;55.558;-4.644;2023-08-17T13:07:28;2.28;;;1.02;;
64851;SDS011;56050;55.558;-4.644;2023-08-17T13:09:54;4.60;;;3.10;;
64851;SDS011;56050;55.558;-4.644;2023-08-17T13:12:19;3.72;;;1.23;;
64851;SDS011;56050;55.558;-4.644;2023-08-17T13:14:45;4.72;;;1.83;;
64851;SDS011;56050;55.558;-4.644;2023-08-17T13:17:10;3.92;;;1.27;;
64851;SDS011;56050;55.558;-4.644;2023-08-17T13:19:36;3.10;;;1.88;;
64851;SDS011;56050;55.558;-4.644;2023-08-17T13:22:01;5.20;;;1.65;;
64851;SDS011;56050;55.558;-4.644;2023-08-17T13:24:28;4.43;;;2.33;;
64851;SDS011;56050;55.558;-4.644;2023-08-17T13:26:53;3.20;;;1.98;;
64851;SDS011;56050;55.558;-4.644;2023-08-17T13:29:19;3.97;;;1.48;;
64851;SDS011;56050;55.558;-4.644;2023-08-17T13:31:46;2.75;;;1.10;;
64851;SDS011;56050;55.558;-4.644;2023-08-17T13:34:13;4.40;;;1.85;;
64851;SDS011;56050;55.558;-4.644;2023-08-17T13:36:38;5.50;;;1.88;;
64851;SDS011;56050;55.558;-4.644;2023-08-17T13:39:04;3.85;;;1.65;;
64851;SDS011;56050;55.558;-4.644;2023-08-17T13:41:31;3.80;;;1.95;;
64851;SDS011;56050;55.558;-4.644;2023-08-17T13:43:56;5.50;;;1.27;;
64851;SDS011;56050;55.558;-4.644;2023-08-17T13:46:22;3.13;;;1.88;;
64851;SDS011;56050;55.558;-4.644;2023-08-17T13:48:48;7.18;;;2.35;;
64851;SDS011;56050;55.558;-4.644;2023-08-17T13:51:13;5.25;;;1.67;;
64851;SDS011;56050;55.558;-4.644;2023-08-17T13:53:39;2.97;;;1.45;;
64851;SDS011;56050;55.558;-4.644;2023-08-17T13:56:05;3.15;;;1.60;;
64851;SDS011;56050;55.558;-4.644;2023-08-17T13:58:30;2.60;;;1.30;;
64851;SDS011;56050;55.558;-4.644;2023-08-17T14:00:56;3.17;;;1.20;;
64851;SDS011;56050;55.558;-4.644;2023-08-17T14:03:22;4.28;;;1.60;;
64851;SDS011;56050;55.558;-4.644;2023-08-17T14:05:48;3.30;;;1.63;;
64851;SDS011;56050;55.558;-4.644;2023-08-17T14:08:13;3.63;;;1.33;;
64851;SDS011;56050;55.558;-4.644;2023-08-17T14:10:38;3.08;;;1.73;;
64851;SDS011;56050;55.558;-4.644;2023-08-17T14:13:04;2.38;;;1.52;;
64851;SDS011;56050;55.558;-4.644;2023-08-17T14:15:29;3.20;;;0.95;;
64851;SDS011;56050;55.558;-4.644;2023-08-17T14:17:55;5.72;;;2.75;;
64851;SDS011;56050;55.558;-4.644;2023-08-17T14:20:20;4.80;;;1.23;;
64851;SDS011;56050;55.558;-4.644;2023-08-17T14:22:46;4.72;;;2.20;;
64851;SDS011;56050;55.558;-4.644;2023-08-17T14:25:12;2.85;;;1.20;;
64851;SDS011;56050;55.558;-4.644;2023-08-17T14:27:37;4.10;;;1.33;;
64851;SDS011;56050;55.558;-4.644;2023-08-17T14:30:03;7.90;;;1.65;;
64851;SDS011;56050;55.558;-4.644;2023-08-17T14:32:29;2.58;;;1.13;;
64851;SDS011;56050;55.558;-4.644;2023-08-17T14:34:54;5.25;;;1.88;;
64851;SDS011;56050;55.558;-4.644;2023-08-17T14:37:20;3.28;;;0.90;;
64851;SDS011;56050;55.558;-4.644;2023-08-17T14:39:45;3.75;;;1.13;;
64851;SDS011;56050;55.558;-4.644;2023-08-17T14:42:11;3.45;;;1.40;;
64851;SDS011;56050;55.558;-4.644;2023-08-17T14:44:37;2.75;;;1.08;;
64851;SDS011;56050;55.558;-4.644;2023-08-17T14:47:02;2.95;;;2.33;;
64851;SDS011;56050;55.558;-4.644;2023-08-17T14:49:28;2.10;;;1.13;;
64851;SDS011;56050;55.558;-4.644;2023-08-17T14:51:54;3.42;;;1.10;;
64851;SDS011;56050;55.558;-4.644;2023-08-17T14:54:19;2.22;;;0.68;;
64851;SDS011;56050;55.558;-4.644;2023-08-17T14:56:45;3.05;;;1.13;;
64851;SDS011;56050;55.558;-4.644;2023-08-17T14:59:10;3.80;;;1.25;;